Time;durP1;ratioP1;P1;durP2;ratioP2;P2;SDS_P1;SDS_P2;PMS_P1;PMS_P2;Temp;Humidity;BMP_temperature;BMP_pressure;BME280_temperature;BME280_humidity;BME280_pressure;Samples;Min_cycle;Max_cycle;Signal;HPM_P1;HPM_P2
2022/09/15 00:00:20;;;;;;;3.88;1.40;;;;;;;;;;5089413;28;20476;-77
2022/09/15 00:02:46;;;;;;;5.85;1.65;;;;;;;;;;5089740;28;20123;-77
2022/09/15 00:05:12;;;;;;;4.45;1.77;;;;;;;;;;5089401;28;20032;-77
2022/09/15 00:07:37;;;;;;;4.80;1.55;;;;;;;;;;5089518;28;20390;-77
2022/09/15 00:10:05;;;;;;;5.00;1.55;;;;;;;;;;5089512;28;20498;-77
2022/09/15 00:12:30;;;;;;;5.05;1.50;;;;;;;;;;5089561;28;20034;-76
2022/09/15 00:14:56;;;;;;;3.33;1.40;;;;;;;;;;5089302;28;20027;-77
2022/09/15 00:17:21;;;;;;;5.07;1.48;;;;;;;;;;5089286;28;20483;-76
2022/09/15 00:19:47;;;;;;;6.07;1.38;;;;;;;;;;5089367;28;20033;-77
2022/09/15 00:22:13;;;;;;;9.90;1.98;;;;;;;;;;5090430;28;20024;-77
2022/09/15 00:24:39;;;;;;;4.50;1.40;;;;;;;;;;5093321;28;20039;-77
2022/09/15 00:27:04;;;;;;;5.18;1.63;;;;;;;;;;5093000;28;20024;-77
2022/09/15 00:29:30;;;;;;;8.20;1.50;;;;;;;;;;5093191;28;20100;-77
2022/09/15 00:31:55;;;;;;;4.38;1.38;;;;;;;;;;5074795;28;20034;-77
2022/09/15 00:34:20;;;;;;;6.82;1.63;;;;;;;;;;5093134;28;20400;-77
2022/09/15 00:36:46;;;;;;;5.38;1.70;;;;;;;;;;5092663;28;20020;-77
2022/09/15 00:39:11;;;;;;;6.43;1.70;;;;;;;;;;5092958;28;20500;-77
2022/09/15 00:41:38;;;;;;;5.40;1.60;;;;;;;;;;5092831;28;20106;-77
2022/09/15 00:44:22;;;;;;;4.22;1.50;;;;;;;;;;5074659;28;20025;-76
2022/09/15 00:46:51;;;;;;;4.18;1.20;;;;;;;;;;5092733;28;20024;-77
2022/09/15 00:49:28;;;;;;;6.65;1.77;;;;;;;;;;5092707;28;20035;-78
2022/09/15 00:52:05;;;;;;;6.20;1.40;;;;;;;;;;5092516;28;20525;-76
2022/09/15 00:54:36;;;;;;;4.35;1.45;;;;;;;;;;5074205;28;20032;-77
2022/09/15 00:57:09;;;;;;;4.50;1.50;;;;;;;;;;5074085;28;20028;-78
2022/09/15 00:59:37;;;;;;;3.38;1.45;;;;;;;;;;5092723;28;20483;-77
2022/09/15 01:02:12;;;;;;;3.40;1.45;;;;;;;;;;5092613;28;20074;-78
2022/09/15 01:04:37;;;;;;;7.70;1.40;;;;;;;;;;5092613;28;20077;-78
2022/09/15 01:07:05;;;;;;;3.28;1.30;;;;;;;;;;5092222;28;20041;-78
2022/09/15 01:09:37;;;;;;;5.10;1.52;;;;;;;;;;5092227;28;20078;-77
2022/09/15 01:12:03;;;;;;;4.70;1.42;;;;;;;;;;5091914;28;20031;-77
2022/09/15 01:14:28;;;;;;;7.18;1.45;;;;;;;;;;5092290;28;20024;-78
2022/09/15 01:17:05;;;;;;;3.83;1.50;;;;;;;;;;5092224;28;20039;-77
2022/09/15 01:19:59;;;;;;;3.80;1.60;;;;;;;;;;5092408;28;20027;-78
2022/09/15 01:22:59;;;;;;;4.20;1.48;;;;;;;;;;5091988;28;20468;-79
2022/09/15 01:25:40;;;;;;;4.07;1.38;;;;;;;;;;4989572;28;20046;-79
2022/09/15 01:28:38;;;;;;;5.13;1.40;;;;;;;;;;5080887;28;20119;-77
2022/09/15 01:31:22;;;;;;;6.70;1.58;;;;;;;;;;5057214;28;20043;-78
2022/09/15 01:34:13;;;;;;;3.67;1.40;;;;;;;;;;5091466;28;20112;-80
2022/09/15 01:36:51;;;;;;;3.40;1.33;;;;;;;;;;5091685;28;20518;-78
2022/09/15 01:39:22;;;;;;;4.53;1.33;;;;;;;;;;5091941;28;20024;-80
2022/09/15 01:42:02;;;;;;;5.43;1.30;;;;;;;;;;5091700;28;20068;-79
2022/09/15 01:44:32;;;;;;;4.53;1.45;;;;;;;;;;5091680;28;20020;-80
2022/09/15 01:47:06;;;;;;;4.63;1.40;;;;;;;;;;5091420;28;20039;-80
2022/09/15 01:49:55;;;;;;;3.88;1.40;;;;;;;;;;5091574;28;20476;-80
2022/09/15 01:52:23;;;;;;;8.00;1.50;;;;;;;;;;5075532;28;20119;-80
2022/09/15 01:54:54;;;;;;;4.50;1.42;;;;;;;;;;5073378;28;20040;-78
2022/09/15 01:57:20;;;;;;;3.97;1.40;;;;;;;;;;5091263;28;20111;-80
2022/09/15 01:59:50;;;;;;;4.43;1.40;;;;;;;;;;5091456;28;20059;-78
2022/09/15 02:02:24;;;;;;;4.55;1.30;;;;;;;;;;5091474;28;20164;-78
2022/09/15 02:05:02;;;;;;;7.00;1.70;;;;;;;;;;5091213;28;20059;-79
2022/09/15 02:07:34;;;;;;;4.82;1.52;;;;;;;;;;5091012;28;20127;-78
2022/09/15 02:10:33;;;;;;;2.90;1.10;;;;;;;;;;5091233;28;20055;-78
2022/09/15 02:13:22;;;;;;;4.85;1.58;;;;;;;;;;5084510;28;20527;-77
2022/09/15 02:15:52;;;;;;;4.95;1.58;;;;;;;;;;5075962;28;20035;-78
2022/09/15 02:18:31;;;;;;;3.08;1.23;;;;;;;;;;5090933;28;20019;-77
2022/09/15 02:21:08;;;;;;;6.57;1.88;;;;;;;;;;5091197;28;20391;-79
2022/09/15 02:23:39;;;;;;;3.58;1.50;;;;;;;;;;5090869;28;20108;-78
2022/09/15 02:26:10;;;;;;;4.53;1.35;;;;;;;;;;5090967;28;20085;-77
2022/09/15 02:28:38;;;;;;;5.22;1.60;;;;;;;;;;5090317;28;20031;-79
2022/09/15 02:31:07;;;;;;;4.13;1.48;;;;;;;;;;5091038;28;20039;-80
2022/09/15 02:33:38;;;;;;;3.08;1.50;;;;;;;;;;5072610;28;20024;-80
2022/09/15 02:36:04;;;;;;;6.78;1.42;;;;;;;;;;5090755;28;20028;-81
2022/09/15 02:38:36;;;;;;;4.13;1.50;;;;;;;;;;5090445;28;20099;-80
2022/09/15 02:41:02;;;;;;;3.17;1.40;;;;;;;;;;5090690;28;20544;-81
2022/09/15 02:43:28;;;;;;;5.47;1.50;;;;;;;;;;5090433;28;20016;-81
2022/09/15 02:45:54;;;;;;;5.13;1.30;;;;;;;;;;5089653;28;20016;-81
2022/09/15 02:48:19;;;;;;;6.90;1.50;;;;;;;;;;5090532;28;20077;-81
2022/09/15 02:50:45;;;;;;;4.07;1.30;;;;;;;;;;5090708;28;20047;-81
2022/09/15 02:53:10;;;;;;;5.13;1.50;;;;;;;;;;5090619;28;20075;-82
2022/09/15 02:55:36;;;;;;;3.75;1.60;;;;;;;;;;5090375;28;20031;-80
2022/09/15 02:58:01;;;;;;;5.07;1.63;;;;;;;;;;5089967;28;20028;-80
2022/09/15 03:00:27;;;;;;;5.85;1.45;;;;;;;;;;5090382;28;20117;-81
2022/09/15 03:02:53;;;;;;;4.55;1.50;;;;;;;;;;5090319;28;20054;-80
2022/09/15 03:05:22;;;;;;;7.22;1.60;;;;;;;;;;5090314;28;20055;-81
2022/09/15 03:07:47;;;;;;;5.45;1.60;;;;;;;;;;5090009;28;20529;-81
2022/09/15 03:10:13;;;;;;;4.15;1.40;;;;;;;;;;5090238;28;20032;-81
2022/09/15 03:12:50;;;;;;;5.53;1.40;;;;;;;;;;5090112;28;20547;-81
2022/09/15 03:15:19;;;;;;;6.72;1.50;;;;;;;;;;5090063;28;20039;-77
2022/09/15 03:17:45;;;;;;;4.95;1.40;;;;;;;;;;5090007;28;20032;-77
2022/09/15 03:20:14;;;;;;;4.88;1.38;;;;;;;;;;5090217;28;20039;-78
2022/09/15 03:22:39;;;;;;;8.13;1.67;;;;;;;;;;5089792;28;20531;-78
2022/09/15 03:25:06;;;;;;;3.47;1.50;;;;;;;;;;5090580;28;20032;-77
2022/09/15 03:27:32;;;;;;;7.82;1.67;;;;;;;;;;5089591;28;20024;-77
2022/09/15 03:29:58;;;;;;;4.32;1.60;;;;;;;;;;5089806;28;20076;-77
2022/09/15 03:32:23;;;;;;;4.28;1.42;;;;;;;;;;5089883;28;20103;-77
2022/09/15 03:34:49;;;;;;;8.38;1.60;;;;;;;;;;5089824;28;20042;-77
2022/09/15 03:37:15;;;;;;;4.75;1.40;;;;;;;;;;5089895;28;20031;-77
2022/09/15 03:39:40;;;;;;;7.38;1.30;;;;;;;;;;5090137;28;20028;-77
2022/09/15 03:42:06;;;;;;;5.72;1.70;;;;;;;;;;5089863;28;20092;-77
2022/09/15 03:44:31;;;;;;;5.60;1.85;;;;;;;;;;5089697;28;20032;-76
2022/09/15 03:46:57;;;;;;;4.20;1.50;;;;;;;;;;5089598;28;20028;-77
2022/09/15 03:49:23;;;;;;;2.63;1.30;;;;;;;;;;5089437;28;20077;-77
2022/09/15 03:51:49;;;;;;;5.68;1.42;;;;;;;;;;5089883;28;20103;-76
2022/09/15 03:54:14;;;;;;;4.03;1.27;;;;;;;;;;5071550;28;20111;-76
2022/09/15 03:56:39;;;;;;;3.85;1.40;;;;;;;;;;5089985;28;20365;-77
2022/09/15 03:59:05;;;;;;;7.05;1.63;;;;;;;;;;5093961;28;20056;-77
2022/09/15 04:01:31;;;;;;;3.97;1.40;;;;;;;;;;5093817;28;20030;-77
2022/09/15 04:03:56;;;;;;;5.20;1.30;;;;;;;;;;5093590;28;20028;-77
2022/09/15 04:06:22;;;;;;;4.03;1.50;;;;;;;;;;5093245;28;20134;-76
2022/09/15 04:08:49;;;;;;;4.35;1.48;;;;;;;;;;5093244;28;20043;-76
2022/09/15 04:11:15;;;;;;;5.07;1.50;;;;;;;;;;5093633;28;20032;-77
2022/09/15 04:13:42;;;;;;;5.18;1.75;;;;;;;;;;5093366;28;20035;-76
2022/09/15 04:16:10;;;;;;;6.47;1.48;;;;;;;;;;5093513;28;20032;-77
2022/09/15 04:18:36;;;;;;;5.28;1.40;;;;;;;;;;5093185;28;20024;-77
2022/09/15 04:21:04;;;;;;;5.25;1.40;;;;;;;;;;5093389;28;20031;-77
2022/09/15 04:23:30;;;;;;;4.25;1.52;;;;;;;;;;5093107;28;20028;-77
2022/09/15 04:26:01;;;;;;;5.90;1.40;;;;;;;;;;5092953;28;20093;-76
2022/09/15 04:28:27;;;;;;;;;;;;;;;;;;5093388;28;20107;-76
2022/09/15 04:30:53;;;;;;;4.65;1.50;;;;;;;;;;5093263;28;20312;-76
2022/09/15 04:33:19;;;;;;;3.95;1.52;;;;;;;;;;5093072;28;20027;-77
2022/09/15 04:35:44;;;;;;;3.83;1.30;;;;;;;;;;5093112;28;20032;-77
2022/09/15 04:38:10;;;;;;;6.13;1.60;;;;;;;;;;5092996;28;20063;-78
2022/09/15 04:40:36;;;;;;;4.72;1.52;;;;;;;;;;5074692;28;20086;-77
2022/09/15 04:43:03;;;;;;;3.67;1.33;;;;;;;;;;5093017;28;20553;-77
2022/09/15 04:45:28;;;;;;;5.93;1.95;;;;;;;;;;5092835;28;20525;-77
2022/09/15 04:47:53;;;;;;;10.45;1.60;;;;;;;;;;5092914;28;20138;-77
2022/09/15 04:50:19;;;;;;;4.55;1.80;;;;;;;;;;5092632;28;20107;-76
2022/09/15 04:52:44;;;;;;;5.55;1.70;;;;;;;;;;5092898;28;20028;-77
2022/09/15 04:55:10;;;;;;;5.88;1.33;;;;;;;;;;5092736;28;20115;-77
2022/09/15 04:57:35;;;;;;;8.13;1.50;;;;;;;;;;5092170;28;20510;-77
2022/09/15 05:00:04;;;;;;;4.32;1.58;;;;;;;;;;5092427;28;20114;-77
2022/09/15 05:02:29;;;;;;;4.57;1.50;;;;;;;;;;5092573;28;20028;-77
2022/09/15 05:04:55;;;;;;;4.78;1.35;;;;;;;;;;5092573;28;20166;-77
2022/09/15 05:07:20;;;;;;;4.15;1.38;;;;;;;;;;5094646;28;20080;-76
2022/09/15 05:09:46;;;;;;;4.85;1.90;;;;;;;;;;5111533;28;20596;-76
2022/09/15 05:12:11;;;;;;;4.68;1.67;;;;;;;;;;5112576;28;20028;-78
2022/09/15 05:14:36;;;;;;;5.45;2.17;;;;;;;;;;5112668;28;20023;-77
2022/09/15 05:17:02;;;;;;;7.20;1.52;;;;;;;;;;5112542;28;20023;-76
2022/09/15 05:19:27;;;;;;;5.57;1.77;;;;;;;;;;5112423;28;20399;-77
2022/09/15 05:21:53;;;;;;;4.10;1.50;;;;;;;;;;5112747;28;20379;-77
2022/09/15 05:24:18;;;;;;;4.03;1.60;;;;;;;;;;5112208;28;20410;-77
2022/09/15 05:26:43;;;;;;;4.03;1.55;;;;;;;;;;5112535;28;20027;-76
2022/09/15 05:29:09;;;;;;;7.82;1.88;;;;;;;;;;5111912;28;20027;-77
2022/09/15 05:31:34;;;;;;;4.70;1.80;;;;;;;;;;5112348;28;20407;-77
2022/09/15 05:34:04;;;;;;;5.22;1.70;;;;;;;;;;5111890;28;20065;-76
2022/09/15 05:36:30;;;;;;;5.75;2.10;;;;;;;;;;5112179;28;20024;-77
2022/09/15 05:38:56;;;;;;;8.77;1.80;;;;;;;;;;5112215;28;20075;-77
2022/09/15 05:41:22;;;;;;;5.63;1.60;;;;;;;;;;5112115;28;20107;-77
2022/09/15 05:43:48;;;;;;;4.50;1.70;;;;;;;;;;5112250;28;20080;-76
2022/09/15 05:46:15;;;;;;;5.47;1.75;;;;;;;;;;5111903;28;20028;-76
2022/09/15 05:48:40;;;;;;;7.05;1.70;;;;;;;;;;5112019;28;20028;-77
2022/09/15 05:51:06;;;;;;;5.30;1.70;;;;;;;;;;5111771;28;20518;-77
2022/09/15 05:53:33;;;;;;;5.13;1.65;;;;;;;;;;5111899;28;20026;-77
2022/09/15 05:56:04;;;;;;;4.45;1.80;;;;;;;;;;5111645;28;20147;-76
2022/09/15 05:58:30;;;;;;;6.45;2.17;;;;;;;;;;5111866;28;20507;-76
2022/09/15 06:01:01;;;;;;;4.57;1.90;;;;;;;;;;5110285;28;20035;-76
2022/09/15 06:03:27;;;;;;;6.38;1.95;;;;;;;;;;5110479;28;20034;-76
2022/09/15 06:06:03;;;;;;;6.53;2.00;;;;;;;;;;5111433;28;20034;-76
2022/09/15 06:08:34;;;;;;;3.53;1.77;;;;;;;;;;5111575;28;20081;-76
2022/09/15 06:11:11;;;;;;;7.05;2.50;;;;;;;;;;5111184;28;20167;-77
2022/09/15 06:13:37;;;;;;;8.52;2.45;;;;;;;;;;5111483;28;20375;-76
2022/09/15 06:16:05;;;;;;;8.45;2.30;;;;;;;;;;5111332;28;20471;-76
2022/09/15 06:18:32;;;;;;;6.95;2.33;;;;;;;;;;5111493;28;20031;-76
2022/09/15 06:21:05;;;;;;;8.75;2.38;;;;;;;;;;5111366;28;20026;-76
2022/09/15 06:23:31;;;;;;;13.05;2.40;;;;;;;;;;5111258;28;20607;-75
2022/09/15 06:26:03;;;;;;;15.43;2.58;;;;;;;;;;5111200;28;20034;-76
2022/09/15 06:28:28;;;;;;;14.88;2.78;;;;;;;;;;5110835;28;20059;-75
2022/09/15 06:30:54;;;;;;;8.60;2.17;;;;;;;;;;5110932;28;20062;-76
2022/09/15 06:33:19;;;;;;;4.95;2.20;;;;;;;;;;5111259;28;20019;-76
2022/09/15 06:35:44;;;;;;;7.68;2.25;;;;;;;;;;5111036;27;20057;-76
2022/09/15 06:38:10;;;;;;;8.80;2.25;;;;;;;;;;5110952;28;20584;-75
2022/09/15 06:40:36;;;;;;;7.40;2.38;;;;;;;;;;5110833;28;20028;-75
2022/09/15 06:43:01;;;;;;;8.55;2.45;;;;;;;;;;5110874;28;20051;-76
2022/09/15 06:45:28;;;;;;;7.93;2.75;;;;;;;;;;5110627;28;20386;-76
2022/09/15 06:47:54;;;;;;;11.15;2.05;;;;;;;;;;5110616;28;20027;-75
2022/09/15 06:50:20;;;;;;;6.72;2.10;;;;;;;;;;5110728;28;20023;-75
2022/09/15 06:52:45;;;;;;;5.22;1.75;;;;;;;;;;5111115;28;20026;-75
2022/09/15 06:55:11;;;;;;;9.93;2.30;;;;;;;;;;5110696;27;20023;-76
2022/09/15 06:57:36;;;;;;;8.05;2.00;;;;;;;;;;5110327;28;20027;-76
2022/09/15 07:00:04;;;;;;;6.30;2.20;;;;;;;;;;5110289;28;20514;-76
2022/09/15 07:02:30;;;;;;;6.28;2.05;;;;;;;;;;5110506;28;20023;-75
2022/09/15 07:04:55;;;;;;;5.47;2.00;;;;;;;;;;5110393;28;20023;-76
2022/09/15 07:07:21;;;;;;;8.43;2.40;;;;;;;;;;5098302;28;20043;-75
2022/09/15 07:09:46;;;;;;;6.63;2.20;;;;;;;;;;5090139;28;20466;-75
2022/09/15 07:12:11;;;;;;;5.30;1.95;;;;;;;;;;5090034;28;20027;-75
2022/09/15 07:14:37;;;;;;;7.18;1.90;;;;;;;;;;5090087;28;20028;-75
2022/09/15 07:17:02;;;;;;;6.38;2.30;;;;;;;;;;5089746;28;20380;-75
2022/09/15 07:19:28;;;;;;;5.55;1.98;;;;;;;;;;5089986;28;20039;-75
2022/09/15 07:21:53;;;;;;;10.70;2.40;;;;;;;;;;5071504;28;20035;-76
2022/09/15 07:24:18;;;;;;;7.68;2.10;;;;;;;;;;5071795;28;20120;-76
2022/09/15 07:26:44;;;;;;;7.28;2.13;;;;;;;;;;5089813;28;20220;-75
2022/09/15 07:29:09;;;;;;;8.05;2.13;;;;;;;;;;5089781;28;20111;-75
2022/09/15 07:31:37;;;;;;;16.48;2.42;;;;;;;;;;5088957;28;20391;-76
2022/09/15 07:34:04;;;;;;;11.35;2.50;;;;;;;;;;5089858;28;20409;-76
2022/09/15 07:36:29;;;;;;;9.00;2.17;;;;;;;;;;5089676;28;20098;-76
2022/09/15 07:38:55;;;;;;;7.32;1.90;;;;;;;;;;5089632;28;20115;-76
2022/09/15 07:41:28;;;;;;;7.85;1.92;;;;;;;;;;5089652;28;20085;-76
2022/09/15 07:43:56;;;;;;;9.95;1.95;;;;;;;;;;5089830;28;20028;-75
2022/09/15 07:46:23;;;;;;;6.93;1.55;;;;;;;;;;5089619;28;20105;-75
2022/09/15 07:48:51;;;;;;;6.15;1.73;;;;;;;;;;5089547;28;20028;-75
2022/09/15 07:51:17;;;;;;;9.27;2.00;;;;;;;;;;5089550;28;20558;-75
2022/09/15 07:53:44;;;;;;;8.98;2.40;;;;;;;;;;5089643;28;20020;-75
2022/09/15 07:56:10;;;;;;;8.40;1.92;;;;;;;;;;5089424;28;20396;-75
2022/09/15 07:58:36;;;;;;;6.93;2.05;;;;;;;;;;5089770;28;20031;-76
2022/09/15 08:01:06;;;;;;;8.75;2.05;;;;;;;;;;5089614;28;20507;-75
2022/09/15 08:03:32;;;;;;;;;;;;;;;;;;5089930;28;20085;-75
2022/09/15 08:06:00;;;;;;;5.78;1.60;;;;;;;;;;5089439;28;19912;-75
2022/09/15 08:08:26;;;;;;;7.30;1.80;;;;;;;;;;5089523;28;20016;-75
2022/09/15 08:10:52;;;;;;;8.25;1.90;;;;;;;;;;5089238;28;20078;-75
2022/09/15 08:13:18;;;;;;;9.23;1.98;;;;;;;;;;5089207;28;20433;-75
2022/09/15 08:15:44;;;;;;;5.55;1.65;;;;;;;;;;5089538;28;20028;-75
2022/09/15 08:18:10;;;;;;;8.50;1.73;;;;;;;;;;5071387;28;20119;-75
2022/09/15 08:20:42;;;;;;;6.78;1.75;;;;;;;;;;5089507;28;20036;-76
2022/09/15 08:23:08;;;;;;;9.20;2.03;;;;;;;;;;5089458;28;20082;-76
2022/09/15 08:25:34;;;;;;;7.97;1.83;;;;;;;;;;5089301;28;20035;-76
2022/09/15 08:28:00;;;;;;;8.85;2.05;;;;;;;;;;5089173;28;20028;-76
2022/09/15 08:30:26;;;;;;;6.38;2.13;;;;;;;;;;5089423;28;20499;-77
2022/09/15 08:32:51;;;;;;;6.32;1.60;;;;;;;;;;5089100;28;20089;-76
2022/09/15 08:35:18;;;;;;;5.35;1.75;;;;;;;;;;5089397;28;20024;-76
2022/09/15 08:37:43;;;;;;;4.53;1.70;;;;;;;;;;5089302;28;20625;-76
2022/09/15 08:40:22;;;;;;;7.88;1.70;;;;;;;;;;5089364;28;20036;-76
2022/09/15 08:42:50;;;;;;;6.45;1.63;;;;;;;;;;5088739;28;20027;-76
2022/09/15 08:45:24;;;;;;;6.22;1.75;;;;;;;;;;5091757;28;20031;-75
2022/09/15 08:47:55;;;;;;;5.82;1.50;;;;;;;;;;5092581;28;20522;-76
2022/09/15 08:50:30;;;;;;;4.00;1.77;;;;;;;;;;5092604;28;20067;-76
2022/09/15 08:53:08;;;;;;;4.70;1.58;;;;;;;;;;5092472;28;20084;-75
2022/09/15 08:55:43;;;;;;;5.88;1.70;;;;;;;;;;5092695;28;20487;-75
2022/09/15 08:58:15;;;;;;;6.75;1.77;;;;;;;;;;5092460;28;20077;-76
2022/09/15 09:00:42;;;;;;;6.40;1.75;;;;;;;;;;5092513;28;20112;-76
2022/09/15 09:03:46;;;;;;;6.35;1.52;;;;;;;;;;5092254;28;20051;-76
2022/09/15 09:06:36;;;;;;;6.38;1.67;;;;;;;;;;5092178;28;20024;-75
2022/09/15 09:09:14;;;;;;;8.23;1.70;;;;;;;;;;5092466;28;20032;-76
2022/09/15 09:11:56;;;;;;;6.63;1.65;;;;;;;;;;5092292;28;20035;-75
2022/09/15 09:14:42;;;;;;;8.00;1.60;;;;;;;;;;5092318;28;20020;-76
2022/09/15 09:17:13;;;;;;;5.65;1.63;;;;;;;;;;5073944;28;20028;-75
2022/09/15 09:20:09;;;;;;;7.63;1.63;;;;;;;;;;5092064;28;20077;-76
2022/09/15 09:22:38;;;;;;;11.95;1.90;;;;;;;;;;5091761;28;20532;-75
2022/09/15 09:25:04;;;;;;;7.65;1.90;;;;;;;;;;5092039;28;20545;-75
2022/09/15 09:27:33;;;;;;;9.00;1.80;;;;;;;;;;5091841;28;20032;-75
2022/09/15 09:30:01;;;;;;;9.45;1.90;;;;;;;;;;5091983;28;20040;-76
2022/09/15 09:32:44;;;;;;;9.65;1.92;;;;;;;;;;5091763;28;20030;-75
2022/09/15 09:35:27;;;;;;;5.28;1.70;;;;;;;;;;5092003;28;20586;-76
2022/09/15 09:37:53;;;;;;;8.52;1.83;;;;;;;;;;5091613;28;20055;-76
2022/09/15 09:40:19;;;;;;;6.57;1.80;;;;;;;;;;5091650;28;20492;-76
2022/09/15 09:42:45;;;;;;;6.82;1.70;;;;;;;;;;5091221;28;20028;-76
2022/09/15 09:45:17;;;;;;;6.72;1.60;;;;;;;;;;5091843;28;20433;-75
2022/09/15 09:47:42;;;;;;;5.03;1.55;;;;;;;;;;5091584;28;20028;-75
2022/09/15 09:50:31;;;;;;;5.00;1.27;;;;;;;;;;5091732;28;20032;-75
2022/09/15 09:52:57;;;;;;;5.60;1.30;;;;;;;;;;5075224;28;20119;-76
2022/09/15 09:55:25;;;;;;;5.05;1.50;;;;;;;;;;5090934;28;20240;-76
2022/09/15 09:57:52;;;;;;;6.20;1.42;;;;;;;;;;5072683;28;20128;-75
2022/09/15 10:00:34;;;;;;;6.05;1.50;;;;;;;;;;5091315;28;20028;-76
2022/09/15 10:03:21;;;;;;;5.35;1.27;;;;;;;;;;5091103;28;20024;-76
2022/09/15 10:06:10;;;;;;;5.35;1.40;;;;;;;;;;5091501;28;20024;-75
2022/09/15 10:08:37;;;;;;;9.73;1.60;;;;;;;;;;5091155;28;20525;-76
2022/09/15 10:11:09;;;;;;;4.35;1.40;;;;;;;;;;5091276;28;20028;-78
2022/09/15 10:13:35;;;;;;;3.03;1.30;;;;;;;;;;5090392;28;20153;-77
2022/09/15 10:16:04;;;;;;;3.63;1.10;;;;;;;;;;5091096;28;20028;-76
2022/09/15 10:18:33;;;;;;;4.93;1.58;;;;;;;;;;5091092;28;20164;-75
2022/09/15 10:21:00;;;;;;;4.43;1.00;;;;;;;;;;5091156;28;20031;-76
2022/09/15 10:23:28;;;;;;;4.18;1.10;;;;;;;;;;5090745;28;20111;-76
2022/09/15 10:26:16;;;;;;;4.68;1.17;;;;;;;;;;5091566;28;20027;-76
2022/09/15 10:28:42;;;;;;;4.93;1.20;;;;;;;;;;5090320;28;20506;-76
2022/09/15 10:31:09;;;;;;;4.90;1.05;;;;;;;;;;5090623;28;20024;-76
2022/09/15 10:33:41;;;;;;;3.00;1.00;;;;;;;;;;5090420;28;20456;-77
2022/09/15 10:36:22;;;;;;;4.47;1.30;;;;;;;;;;5090834;28;20376;-76
2022/09/15 10:38:53;;;;;;;2.95;1.00;;;;;;;;;;5090762;28;20555;-76
2022/09/15 10:41:26;;;;;;;2.88;1.08;;;;;;;;;;5091046;28;20024;-75
2022/09/15 10:44:21;;;;;;;4.03;1.20;;;;;;;;;;5090182;28;20111;-77
2022/09/15 10:47:21;;;;;;;4.43;1.08;;;;;;;;;;5089219;28;20488;-76
2022/09/15 10:49:59;;;;;;;3.22;0.88;;;;;;;;;;5090426;28;20067;-76
2022/09/15 10:52:24;;;;;;;2.58;1.00;;;;;;;;;;5090262;28;20059;-76
2022/09/15 10:55:27;;;;;;;2.65;1.10;;;;;;;;;;5089008;28;20051;-76
2022/09/15 10:58:11;;;;;;;4.40;1.33;;;;;;;;;;5090294;28;20035;-75
2022/09/15 11:00:42;;;;;;;4.40;1.55;;;;;;;;;;5089071;28;20081;-76
2022/09/15 11:03:24;;;;;;;2.72;1.02;;;;;;;;;;5090134;28;20028;-75
2022/09/15 11:06:13;;;;;;;2.90;1.15;;;;;;;;;;5088729;28;20127;-76
2022/09/15 11:08:47;;;;;;;3.70;1.25;;;;;;;;;;5047785;28;20044;-76
2022/09/15 11:11:32;;;;;;;2.80;1.35;;;;;;;;;;5090359;28;20028;-76
2022/09/15 11:14:19;;;;;;;2.25;1.10;;;;;;;;;;5089826;28;20028;-76
2022/09/15 11:17:05;;;;;;;4.15;1.10;;;;;;;;;;5090309;28;20035;-76
2022/09/15 11:19:49;;;;;;;2.88;1.02;;;;;;;;;;5089975;28;20028;-76
2022/09/15 11:22:14;;;;;;;5.15;1.15;;;;;;;;;;5090051;28;20024;-75
2022/09/15 11:24:48;;;;;;;4.63;1.20;;;;;;;;;;5089595;28;20032;-76
2022/09/15 11:27:29;;;;;;;3.50;1.02;;;;;;;;;;5088540;28;20154;-76
2022/09/15 11:30:01;;;;;;;4.82;1.23;;;;;;;;;;5090002;28;20028;-76
2022/09/15 11:32:47;;;;;;;2.30;1.10;;;;;;;;;;5089841;28;20027;-76
2022/09/15 11:35:31;;;;;;;3.10;1.20;;;;;;;;;;5089968;28;20036;-76
2022/09/15 11:38:12;;;;;;;2.40;1.02;;;;;;;;;;5089745;28;20032;-76
2022/09/15 11:40:42;;;;;;;4.35;1.20;;;;;;;;;;5089843;28;20031;-76
2022/09/15 11:43:17;;;;;;;4.05;1.20;;;;;;;;;;5089675;28;20039;-76
2022/09/15 11:45:48;;;;;;;3.35;1.02;;;;;;;;;;5089895;28;20206;-76
2022/09/15 11:48:24;;;;;;;3.95;1.10;;;;;;;;;;5089822;28;20028;-76
2022/09/15 11:50:53;;;;;;;3.00;1.10;;;;;;;;;;5089732;28;20063;-76
2022/09/15 11:54:02;;;;;;;4.90;1.00;;;;;;;;;;5089635;28;20020;-75
2022/09/15 11:56:38;;;;;;;3.65;1.13;;;;;;;;;;5089660;28;20124;-76
2022/09/15 11:59:26;;;;;;;4.32;1.20;;;;;;;;;;5089085;28;20100;-76
2022/09/15 12:02:18;;;;;;;3.22;1.30;;;;;;;;;;5089710;28;20028;-76
2022/09/15 12:05:09;;;;;;;2.28;1.02;;;;;;;;;;5089498;28;20027;-77
2022/09/15 12:07:44;;;;;;;2.70;1.10;;;;;;;;;;5089704;28;20101;-76
2022/09/15 12:10:17;;;;;;;3.88;1.00;;;;;;;;;;5089493;28;20056;-76
2022/09/15 12:12:45;;;;;;;1.35;0.80;;;;;;;;;;5089737;28;20082;-76
2022/09/15 12:15:15;;;;;;;4.20;1.20;;;;;;;;;;5089232;28;20020;-76
2022/09/15 12:17:59;;;;;;;3.35;1.00;;;;;;;;;;5089882;28;20035;-76
2022/09/15 12:20:52;;;;;;;1.65;0.80;;;;;;;;;;5093151;28;20069;-76
2022/09/15 12:23:28;;;;;;;5.97;1.05;;;;;;;;;;5093334;28;20067;-76
2022/09/15 12:26:16;;;;;;;2.03;0.90;;;;;;;;;;5093309;28;20036;-76
2022/09/15 12:29:02;;;;;;;2.67;0.98;;;;;;;;;;5092893;28;20031;-76
2022/09/15 12:31:37;;;;;;;1.92;0.90;;;;;;;;;;5093135;28;20035;-76
2022/09/15 12:34:04;;;;;;;2.17;1.00;;;;;;;;;;5074687;28;20514;-76
2022/09/15 12:36:47;;;;;;;2.60;1.00;;;;;;;;;;5093089;28;20375;-76
2022/09/15 12:39:22;;;;;;;3.70;1.30;;;;;;;;;;5092777;28;20403;-76
2022/09/15 12:41:49;;;;;;;1.90;1.00;;;;;;;;;;5093058;28;20024;-76
2022/09/15 12:44:36;;;;;;;2.03;0.90;;;;;;;;;;5092875;28;20145;-76
2022/09/15 12:47:06;;;;;;;3.47;0.90;;;;;;;;;;5092994;28;20047;-76
2022/09/15 12:49:35;;;;;;;2.35;1.00;;;;;;;;;;5092677;28;20081;-76
2022/09/15 12:52:05;;;;;;;1.60;0.73;;;;;;;;;;5092821;28;20127;-76
2022/09/15 12:54:33;;;;;;;2.40;1.00;;;;;;;;;;5092535;28;20076;-76
2022/09/15 12:57:00;;;;;;;2.97;0.90;;;;;;;;;;5092814;28;20032;-76
2022/09/15 12:59:27;;;;;;;4.78;0.90;;;;;;;;;;5092784;28;20036;-75
2022/09/15 13:01:54;;;;;;;2.45;0.98;;;;;;;;;;5074762;28;20020;-76
2022/09/15 13:04:25;;;;;;;3.65;1.10;;;;;;;;;;5092174;28;20068;-76
2022/09/15 13:07:18;;;;;;;3.05;1.10;;;;;;;;;;5092412;28;20132;-76
2022/09/15 13:10:15;;;;;;;3.33;0.90;;;;;;;;;;5092200;28;20031;-76
2022/09/15 13:12:50;;;;;;;3.15;1.00;;;;;;;;;;5092322;28;20093;-76
2022/09/15 13:15:17;;;;;;;2.40;1.00;;;;;;;;;;5092018;28;20666;-76
2022/09/15 13:17:45;;;;;;;5.25;0.90;;;;;;;;;;5092400;28;20032;-76
2022/09/15 13:20:19;;;;;;;4.30;0.90;;;;;;;;;;5092263;28;20036;-76
2022/09/15 13:22:50;;;;;;;3.58;0.90;;;;;;;;;;5092333;28;20024;-76
2022/09/15 13:25:22;;;;;;;2.58;0.93;;;;;;;;;;5091775;28;20080;-75
2022/09/15 13:27:56;;;;;;;3.80;1.30;;;;;;;;;;5091770;28;20067;-76
2022/09/15 13:30:31;;;;;;;3.17;1.30;;;;;;;;;;5090849;28;20036;-76
2022/09/15 13:33:17;;;;;;;2.72;0.90;;;;;;;;;;5092049;28;20461;-76
2022/09/15 13:35:48;;;;;;;4.30;0.95;;;;;;;;;;5091771;28;20055;-76
2022/09/15 13:38:14;;;;;;;2.17;0.90;;;;;;;;;;5091838;28;20383;-76
2022/09/15 13:40:45;;;;;;;2.90;1.10;;;;;;;;;;5091656;28;20099;-76
2022/09/15 13:43:25;;;;;;;2.80;1.00;;;;;;;;;;5091365;28;20476;-76
2022/09/15 13:45:54;;;;;;;;;;;;;;;;;;5091733;28;20103;-76
2022/09/15 13:48:38;;;;;;;3.85;1.20;;;;;;;;;;5091538;28;19958;-76
2022/09/15 13:51:14;;;;;;;3.20;1.10;;;;;;;;;;5091585;28;20024;-76
2022/09/15 13:53:47;;;;;;;4.15;0.93;;;;;;;;;;5073541;28;20024;-77
2022/09/15 13:56:20;;;;;;;5.32;1.10;;;;;;;;;;5091299;28;20035;-76
2022/09/15 13:58:46;;;;;;;6.53;1.00;;;;;;;;;;5091343;28;20169;-76
2022/09/15 14:01:12;;;;;;;3.85;1.00;;;;;;;;;;5091319;28;20103;-77
2022/09/15 14:03:53;;;;;;;2.35;0.90;;;;;;;;;;5091575;28;20380;-77
2022/09/15 14:06:32;;;;;;;3.17;1.15;;;;;;;;;;5091111;28;20048;-76
2022/09/15 14:09:05;;;;;;;1.48;0.80;;;;;;;;;;5091408;28;20031;-76
2022/09/15 14:11:34;;;;;;;2.85;1.00;;;;;;;;;;5091161;28;20017;-76
2022/09/15 14:14:00;;;;;;;4.40;0.85;;;;;;;;;;5072967;28;20392;-76
2022/09/15 14:16:26;;;;;;;2.88;1.13;;;;;;;;;;5090935;28;20054;-76
2022/09/15 14:18:53;;;;;;;1.95;0.85;;;;;;;;;;5091130;28;20027;-76
2022/09/15 14:21:24;;;;;;;3.72;0.90;;;;;;;;;;5090975;28;20035;-76
2022/09/15 14:23:52;;;;;;;2.20;1.10;;;;;;;;;;5091110;28;20606;-76
2022/09/15 14:26:26;;;;;;;3.42;0.90;;;;;;;;;;5090776;28;20044;-75
2022/09/15 14:29:03;;;;;;;4.60;1.00;;;;;;;;;;5090978;28;20025;-75
2022/09/15 14:31:30;;;;;;;2.42;1.08;;;;;;;;;;5090735;28;20161;-76
2022/09/15 14:33:56;;;;;;;3.95;1.00;;;;;;;;;;5090883;28;20023;-76
2022/09/15 14:36:27;;;;;;;2.17;0.95;;;;;;;;;;5090262;28;20047;-76
2022/09/15 14:39:25;;;;;;;2.85;0.93;;;;;;;;;;5090801;28;20028;-75
2022/09/15 14:41:50;;;;;;;3.20;1.00;;;;;;;;;;5034283;28;20040;-76
2022/09/15 14:44:24;;;;;;;12.40;1.00;;;;;;;;;;5090811;28;20031;-76
2022/09/15 14:46:49;;;;;;;3.08;1.92;;;;;;;;;;5090492;28;20160;-76
2022/09/15 14:49:15;;;;;;;1.80;0.88;;;;;;;;;;5090657;28;20107;-76
2022/09/15 14:51:45;;;;;;;2.47;0.98;;;;;;;;;;5090487;28;20396;-76
2022/09/15 14:54:22;;;;;;;3.33;0.70;;;;;;;;;;5090728;28;20036;-75
2022/09/15 14:56:49;;;;;;;2.10;0.70;;;;;;;;;;5090073;28;20081;-76
2022/09/15 14:59:28;;;;;;;2.83;0.73;;;;;;;;;;5090554;28;20028;-76
2022/09/15 15:01:53;;;;;;;2.25;0.90;;;;;;;;;;5090258;28;20024;-75
2022/09/15 15:04:32;;;;;;;2.47;0.93;;;;;;;;;;5090466;28;20027;-76
2022/09/15 15:07:22;;;;;;;1.83;0.70;;;;;;;;;;5089793;28;20089;-76